Terminal Aerodrome Forecast
Issued by NWS

Home | Current Version | Previous Version | Text Only | Print | Product List | Glossary On
Versions: 1 2 3 4 5 6 7 8 9 10 11 12 13 14 15 16 17 18 19 20 21 22 23 24 25 26 27 28 29 30 31
501
FTUS45 KGJT 270538
TAFRIL
TAF
KRIL 270538Z 2706/2806 34008KT P6SM VCSH SCT090 BKN150
      TEMPO 2706/2708 -SHRA BKN060
     FM271800 29008KT P6SM VCSH SCT100 BKN200
     FM280200 10005KT P6SM BKN110=

USA.gov is the U.S. government's official web portal to all federal, state and local government web resources and services.